sensor_id;sensor_type;location;lat;lon;timestamp;temperature;humidity
12885;DHT22;6510;51.362;7.370;2023-04-09T00:01:39;4.30;99.90
12885;DHT22;6510;51.362;7.370;2023-04-09T00:04:05;4.30;99.90
12885;DHT22;6510;51.362;7.370;2023-04-09T00:06:31;4.20;99.90
12885;DHT22;6510;51.362;7.370;2023-04-09T00:08:57;4.20;99.90
12885;DHT22;6510;51.362;7.370;2023-04-09T00:11:22;4.20;99.90
12885;DHT22;6510;51.362;7.370;2023-04-09T00:13:48;4.10;99.90
12885;DHT22;6510;51.362;7.370;2023-04-09T00:16:13;4.10;99.90
12885;DHT22;6510;51.362;7.370;2023-04-09T00:18:39;4.10;99.90
12885;DHT22;6510;51.362;7.370;2023-04-09T00:21:05;4.00;99.90
12885;DHT22;6510;51.362;7.370;2023-04-09T00:23:33;4.00;99.90
12885;DHT22;6510;51.362;7.370;2023-04-09T00:25:59;3.90;99.90
12885;DHT22;6510;51.362;7.370;2023-04-09T00:28:25;3.90;99.90
12885;DHT22;6510;51.362;7.370;2023-04-09T00:30:51;3.90;99.90
12885;DHT22;6510;51.362;7.370;2023-04-09T00:33:16;3.90;99.90
12885;DHT22;6510;51.362;7.370;2023-04-09T00:35:42;3.80;99.90
12885;DHT22;6510;51.362;7.370;2023-04-09T00:38:08;3.70;99.90
12885;DHT22;6510;51.362;7.370;2023-04-09T00:40:33;3.70;99.90
12885;DHT22;6510;51.362;7.370;2023-04-09T00:42:59;3.80;99.90
12885;DHT22;6510;51.362;7.370;2023-04-09T00:45:25;3.70;99.90
12885;DHT22;6510;51.362;7.370;2023-04-09T00:47:51;3.60;99.90
12885;DHT22;6510;51.362;7.370;2023-04-09T00:50:16;3.60;99.90
12885;DHT22;6510;51.362;7.370;2023-04-09T00:52:42;3.70;99.90
12885;DHT22;6510;51.362;7.370;2023-04-09T00:55:08;3.60;99.90
12885;DHT22;6510;51.362;7.370;2023-04-09T00:57:34;3.60;99.90
12885;DHT22;6510;51.362;7.370;2023-04-09T01:00:00;3.50;99.90
12885;DHT22;6510;51.362;7.370;2023-04-09T01:02:26;3.60;99.90
12885;DHT22;6510;51.362;7.370;2023-04-09T01:04:52;3.60;99.90
12885;DHT22;6510;51.362;7.370;2023-04-09T01:15:35;3.90;99.90
12885;DHT22;6510;51.362;7.370;2023-04-09T01:18:06;4.00;99.90
12885;DHT22;6510;51.362;7.370;2023-04-09T01:21:01;4.00;99.90
12885;DHT22;6510;51.362;7.370;2023-04-09T01:28:42;4.00;99.90
12885;DHT22;6510;51.362;7.370;2023-04-09T01:31:16;4.00;99.90
12885;DHT22;6510;51.362;7.370;2023-04-09T01:33:43;4.00;99.90
12885;DHT22;6510;51.362;7.370;2023-04-09T01:36:09;4.00;99.90
12885;DHT22;6510;51.362;7.370;2023-04-09T01:38:38;3.90;99.90
12885;DHT22;6510;51.362;7.370;2023-04-09T01:41:06;4.00;99.90
12885;DHT22;6510;51.362;7.370;2023-04-09T01:43:32;4.00;99.90
12885;DHT22;6510;51.362;7.370;2023-04-09T01:46:00;3.90;99.90
12885;DHT22;6510;51.362;7.370;2023-04-09T01:48:29;3.90;99.90
12885;DHT22;6510;51.362;7.370;2023-04-09T01:50:56;3.80;99.90
12885;DHT22;6510;51.362;7.370;2023-04-09T01:53:22;3.80;99.90
12885;DHT22;6510;51.362;7.370;2023-04-09T01:55:48;3.70;99.90
12885;DHT22;6510;51.362;7.370;2023-04-09T01:58:14;3.70;99.90
12885;DHT22;6510;51.362;7.370;2023-04-09T02:00:46;3.60;99.90
12885;DHT22;6510;51.362;7.370;2023-04-09T02:03:19;3.60;99.90
12885;DHT22;6510;51.362;7.370;2023-04-09T02:08:20;3.40;99.90
12885;DHT22;6510;51.362;7.370;2023-04-09T02:10:49;3.40;99.90
12885;DHT22;6510;51.362;7.370;2023-04-09T02:13:18;3.30;99.90
12885;DHT22;6510;51.362;7.370;2023-04-09T02:15:46;3.30;99.90
12885;DHT22;6510;51.362;7.370;2023-04-09T02:18:28;3.20;99.90
12885;DHT22;6510;51.362;7.370;2023-04-09T02:20:55;3.10;99.90
12885;DHT22;6510;51.362;7.370;2023-04-09T02:23:21;3.00;99.90
12885;DHT22;6510;51.362;7.370;2023-04-09T02:25:47;2.90;99.90
12885;DHT22;6510;51.362;7.370;2023-04-09T02:28:12;3.00;99.90
12885;DHT22;6510;51.362;7.370;2023-04-09T02:30:38;2.80;99.90
12885;DHT22;6510;51.362;7.370;2023-04-09T02:33:04;2.70;99.90
12885;DHT22;6510;51.362;7.370;2023-04-09T02:35:29;2.70;99.90
12885;DHT22;6510;51.362;7.370;2023-04-09T02:37:55;2.70;99.90
12885;DHT22;6510;51.362;7.370;2023-04-09T02:40:20;2.60;99.90
12885;DHT22;6510;51.362;7.370;2023-04-09T02:42:46;2.60;99.90
12885;DHT22;6510;51.362;7.370;2023-04-09T02:45:12;2.60;99.90
12885;DHT22;6510;51.362;7.370;2023-04-09T02:47:37;2.50;99.90
12885;DHT22;6510;51.362;7.370;2023-04-09T02:50:04;2.50;99.90
12885;DHT22;6510;51.362;7.370;2023-04-09T02:52:30;2.50;99.90
12885;DHT22;6510;51.362;7.370;2023-04-09T02:54:55;2.30;99.90
12885;DHT22;6510;51.362;7.370;2023-04-09T02:57:21;2.30;99.90
12885;DHT22;6510;51.362;7.370;2023-04-09T02:59:46;2.30;99.90
12885;DHT22;6510;51.362;7.370;2023-04-09T03:02:12;2.30;99.90
12885;DHT22;6510;51.362;7.370;2023-04-09T03:04:38;2.30;99.90
12885;DHT22;6510;51.362;7.370;2023-04-09T03:07:04;2.30;99.90
12885;DHT22;6510;51.362;7.370;2023-04-09T03:09:29;2.20;99.90
12885;DHT22;6510;51.362;7.370;2023-04-09T03:11:56;2.20;99.90
12885;DHT22;6510;51.362;7.370;2023-04-09T03:14:22;2.20;99.90
12885;DHT22;6510;51.362;7.370;2023-04-09T03:16:48;2.20;99.90
12885;DHT22;6510;51.362;7.370;2023-04-09T03:19:14;2.20;99.90
12885;DHT22;6510;51.362;7.370;2023-04-09T03:21:39;2.20;99.90
12885;DHT22;6510;51.362;7.370;2023-04-09T03:24:05;2.30;99.90
12885;DHT22;6510;51.362;7.370;2023-04-09T03:26:31;2.30;99.90
12885;DHT22;6510;51.362;7.370;2023-04-09T03:29:04;2.20;99.90
12885;DHT22;6510;51.362;7.370;2023-04-09T03:31:31;2.20;99.90
12885;DHT22;6510;51.362;7.370;2023-04-09T03:33:57;2.10;99.90
12885;DHT22;6510;51.362;7.370;2023-04-09T03:36:22;2.10;99.90
12885;DHT22;6510;51.362;7.370;2023-04-09T03:38:48;2.10;99.90
12885;DHT22;6510;51.362;7.370;2023-04-09T03:41:13;2.20;99.90
12885;DHT22;6510;51.362;7.370;2023-04-09T03:43:39;2.10;99.90
12885;DHT22;6510;51.362;7.370;2023-04-09T03:46:15;2.00;99.90
12885;DHT22;6510;51.362;7.370;2023-04-09T03:48:40;1.90;99.90
12885;DHT22;6510;51.362;7.370;2023-04-09T03:51:16;1.80;99.90
12885;DHT22;6510;51.362;7.370;2023-04-09T03:53:42;1.90;99.90
12885;DHT22;6510;51.362;7.370;2023-04-09T03:56:09;1.90;99.90
12885;DHT22;6510;51.362;7.370;2023-04-09T03:58:34;1.80;99.90
12885;DHT22;6510;51.362;7.370;2023-04-09T04:01:00;1.70;99.90
12885;DHT22;6510;51.362;7.370;2023-04-09T04:03:26;1.80;99.90
12885;DHT22;6510;51.362;7.370;2023-04-09T04:05:52;1.70;99.90
12885;DHT22;6510;51.362;7.370;2023-04-09T04:08:18;1.80;99.90
12885;DHT22;6510;51.362;7.370;2023-04-09T04:10:43;1.90;99.90
12885;DHT22;6510;51.362;7.370;2023-04-09T04:13:09;1.80;99.90
12885;DHT22;6510;51.362;7.370;2023-04-09T04:15:39;1.90;99.90
12885;DHT22;6510;51.362;7.370;2023-04-09T04:18:05;1.80;99.90
12885;DHT22;6510;51.362;7.370;2023-04-09T04:20:35;1.80;99.90
12885;DHT22;6510;51.362;7.370;2023-04-09T04:23:01;1.80;99.90
12885;DHT22;6510;51.362;7.370;2023-04-09T04:25:27;1.90;99.90
12885;DHT22;6510;51.362;7.370;2023-04-09T04:27:52;1.80;99.90
12885;DHT22;6510;51.362;7.370;2023-04-09T04:30:19;1.80;99.90
12885;DHT22;6510;51.362;7.370;2023-04-09T04:32:46;1.90;99.90
12885;DHT22;6510;51.362;7.370;2023-04-09T04:35:11;1.90;99.90
12885;DHT22;6510;51.362;7.370;2023-04-09T04:37:37;1.90;99.90
12885;DHT22;6510;51.362;7.370;2023-04-09T04:40:03;2.00;99.90
12885;DHT22;6510;51.362;7.370;2023-04-09T04:42:29;2.00;99.90
12885;DHT22;6510;51.362;7.370;2023-04-09T04:44:55;1.90;99.90
12885;DHT22;6510;51.362;7.370;2023-04-09T04:47:21;1.90;99.90
12885;DHT22;6510;51.362;7.370;2023-04-09T04:49:46;1.90;99.90
12885;DHT22;6510;51.362;7.370;2023-04-09T04:52:12;1.90;99.90
12885;DHT22;6510;51.362;7.370;2023-04-09T04:54:37;1.90;99.90
12885;DHT22;6510;51.362;7.370;2023-04-09T04:57:03;2.10;99.90
12885;DHT22;6510;51.362;7.370;2023-04-09T04:59:29;2.20;99.90
12885;DHT22;6510;51.362;7.370;2023-04-09T05:01:54;2.20;99.90
12885;DHT22;6510;51.362;7.370;2023-04-09T05:04:20;2.40;99.90
12885;DHT22;6510;51.362;7.370;2023-04-09T05:06:45;2.40;99.90
12885;DHT22;6510;51.362;7.370;2023-04-09T05:09:11;2.50;99.90
12885;DHT22;6510;51.362;7.370;2023-04-09T05:11:37;2.60;99.90
12885;DHT22;6510;51.362;7.370;2023-04-09T05:14:02;2.60;99.90
12885;DHT22;6510;51.362;7.370;2023-04-09T05:16:29;2.80;99.90
12885;DHT22;6510;51.362;7.370;2023-04-09T05:18:55;3.00;99.90
12885;DHT22;6510;51.362;7.370;2023-04-09T05:21:20;3.30;99.90
12885;DHT22;6510;51.362;7.370;2023-04-09T05:23:46;3.30;99.90
12885;DHT22;6510;51.362;7.370;2023-04-09T05:26:12;3.30;99.90
12885;DHT22;6510;51.362;7.370;2023-04-09T05:28:37;3.00;99.90
12885;DHT22;6510;51.362;7.370;2023-04-09T05:31:03;2.70;99.90
12885;DHT22;6510;51.362;7.370;2023-04-09T05:33:29;2.50;99.90
12885;DHT22;6510;51.362;7.370;2023-04-09T05:35:54;2.40;99.90
12885;DHT22;6510;51.362;7.370;2023-04-09T05:38:20;2.30;99.90
12885;DHT22;6510;51.362;7.370;2023-04-09T05:40:46;2.40;99.90
12885;DHT22;6510;51.362;7.370;2023-04-09T05:43:13;2.50;99.90
12885;DHT22;6510;51.362;7.370;2023-04-09T05:45:38;2.60;99.90
12885;DHT22;6510;51.362;7.370;2023-04-09T05:48:05;2.90;99.90
12885;DHT22;6510;51.362;7.370;2023-04-09T05:50:30;3.10;99.90
12885;DHT22;6510;51.362;7.370;2023-04-09T05:52:56;3.20;99.90
12885;DHT22;6510;51.362;7.370;2023-04-09T05:55:21;3.40;99.90
12885;DHT22;6510;51.362;7.370;2023-04-09T05:57:47;3.50;99.90
12885;DHT22;6510;51.362;7.370;2023-04-09T06:00:13;3.60;99.90
12885;DHT22;6510;51.362;7.370;2023-04-09T06:02:40;3.80;99.90
12885;DHT22;6510;51.362;7.370;2023-04-09T06:05:06;3.90;99.90
12885;DHT22;6510;51.362;7.370;2023-04-09T06:07:31;4.00;99.90
12885;DHT22;6510;51.362;7.370;2023-04-09T06:09:57;4.00;99.90
12885;DHT22;6510;51.362;7.370;2023-04-09T06:12:22;4.10;99.90
12885;DHT22;6510;51.362;7.370;2023-04-09T06:14:48;4.60;99.90
12885;DHT22;6510;51.362;7.370;2023-04-09T06:17:14;5.80;99.90
12885;DHT22;6510;51.362;7.370;2023-04-09T06:19:39;6.80;99.90
12885;DHT22;6510;51.362;7.370;2023-04-09T06:22:05;7.90;99.90
12885;DHT22;6510;51.362;7.370;2023-04-09T06:24:33;8.10;99.90
12885;DHT22;6510;51.362;7.370;2023-04-09T06:26:59;8.60;99.90
12885;DHT22;6510;51.362;7.370;2023-04-09T06:29:25;8.80;99.90
12885;DHT22;6510;51.362;7.370;2023-04-09T06:31:50;9.30;99.90
12885;DHT22;6510;51.362;7.370;2023-04-09T06:34:17;9.70;99.90
12885;DHT22;6510;51.362;7.370;2023-04-09T06:36:42;10.00;99.90
12885;DHT22;6510;51.362;7.370;2023-04-09T06:39:08;10.40;99.90
12885;DHT22;6510;51.362;7.370;2023-04-09T06:41:34;10.80;99.90
12885;DHT22;6510;51.362;7.370;2023-04-09T06:44:00;11.20;99.90
12885;DHT22;6510;51.362;7.370;2023-04-09T06:46:26;11.00;99.90
12885;DHT22;6510;51.362;7.370;2023-04-09T06:48:52;11.20;99.90
12885;DHT22;6510;51.362;7.370;2023-04-09T06:51:18;11.60;99.90
12885;DHT22;6510;51.362;7.370;2023-04-09T06:53:43;12.00;99.90
12885;DHT22;6510;51.362;7.370;2023-04-09T06:56:09;12.40;99.90
12885;DHT22;6510;51.362;7.370;2023-04-09T06:58:35;11.90;99.90
12885;DHT22;6510;51.362;7.370;2023-04-09T07:01:01;12.20;99.90
12885;DHT22;6510;51.362;7.370;2023-04-09T07:03:28;12.60;99.90
12885;DHT22;6510;51.362;7.370;2023-04-09T07:05:54;12.10;99.90
12885;DHT22;6510;51.362;7.370;2023-04-09T07:08:19;12.20;99.90
12885;DHT22;6510;51.362;7.370;2023-04-09T07:10:47;12.20;99.90
12885;DHT22;6510;51.362;7.370;2023-04-09T07:13:12;13.10;99.90
12885;DHT22;6510;51.362;7.370;2023-04-09T07:15:38;13.10;99.90
12885;DHT22;6510;51.362;7.370;2023-04-09T07:18:04;13.40;99.90
12885;DHT22;6510;51.362;7.370;2023-04-09T07:20:30;14.00;99.90
12885;DHT22;6510;51.362;7.370;2023-04-09T07:22:55;14.00;99.90
12885;DHT22;6510;51.362;7.370;2023-04-09T07:25:21;13.90;99.90
12885;DHT22;6510;51.362;7.370;2023-04-09T07:27:47;14.40;99.90
12885;DHT22;6510;51.362;7.370;2023-04-09T07:30:14;14.50;99.90
12885;DHT22;6510;51.362;7.370;2023-04-09T07:32:42;14.40;99.90
12885;DHT22;6510;51.362;7.370;2023-04-09T07:35:08;15.00;99.90
12885;DHT22;6510;51.362;7.370;2023-04-09T07:37:34;14.80;99.90
12885;DHT22;6510;51.362;7.370;2023-04-09T07:40:00;14.70;99.90
12885;DHT22;6510;51.362;7.370;2023-04-09T07:42:28;14.50;99.90
12885;DHT22;6510;51.362;7.370;2023-04-09T07:44:53;14.90;99.90
12885;DHT22;6510;51.362;7.370;2023-04-09T07:47:19;15.60;99.90
12885;DHT22;6510;51.362;7.370;2023-04-09T07:49:45;15.60;99.90
12885;DHT22;6510;51.362;7.370;2023-04-09T07:52:11;15.30;99.90
12885;DHT22;6510;51.362;7.370;2023-04-09T07:54:36;15.60;99.90
12885;DHT22;6510;51.362;7.370;2023-04-09T07:57:02;15.30;99.90
12885;DHT22;6510;51.362;7.370;2023-04-09T07:59:28;16.00;99.90
12885;DHT22;6510;51.362;7.370;2023-04-09T08:01:55;16.10;99.90
12885;DHT22;6510;51.362;7.370;2023-04-09T08:04:20;16.50;99.90
12885;DHT22;6510;51.362;7.370;2023-04-09T08:06:46;16.00;99.90
12885;DHT22;6510;51.362;7.370;2023-04-09T08:09:16;16.00;99.90
12885;DHT22;6510;51.362;7.370;2023-04-09T08:11:41;16.60;99.90
12885;DHT22;6510;51.362;7.370;2023-04-09T08:14:10;15.60;99.90
12885;DHT22;6510;51.362;7.370;2023-04-09T08:16:41;15.90;99.90
12885;DHT22;6510;51.362;7.370;2023-04-09T08:19:08;16.60;99.90
12885;DHT22;6510;51.362;7.370;2023-04-09T08:21:39;16.20;99.90
12885;DHT22;6510;51.362;7.370;2023-04-09T08:24:08;15.50;99.90
12885;DHT22;6510;51.362;7.370;2023-04-09T08:26:36;15.60;99.90
12885;DHT22;6510;51.362;7.370;2023-04-09T08:29:01;15.30;99.90
12885;DHT22;6510;51.362;7.370;2023-04-09T08:31:27;15.80;99.90
12885;DHT22;6510;51.362;7.370;2023-04-09T08:33:52;15.20;99.90
12885;DHT22;6510;51.362;7.370;2023-04-09T08:36:19;15.90;99.90
12885;DHT22;6510;51.362;7.370;2023-04-09T08:38:44;15.80;99.90
12885;DHT22;6510;51.362;7.370;2023-04-09T08:41:19;14.00;99.90
12885;DHT22;6510;51.362;7.370;2023-04-09T08:43:48;13.00;99.90
12885;DHT22;6510;51.362;7.370;2023-04-09T08:46:14;13.80;99.90
12885;DHT22;6510;51.362;7.370;2023-04-09T08:48:44;13.20;99.90
12885;DHT22;6510;51.362;7.370;2023-04-09T08:51:20;13.20;99.90
12885;DHT22;6510;51.362;7.370;2023-04-09T08:53:57;12.20;99.90
12885;DHT22;6510;51.362;7.370;2023-04-09T08:56:23;11.60;99.90
12885;DHT22;6510;51.362;7.370;2023-04-09T08:58:49;11.30;99.90
12885;DHT22;6510;51.362;7.370;2023-04-09T09:01:19;11.30;99.90
12885;DHT22;6510;51.362;7.370;2023-04-09T09:04:02;11.30;99.90
12885;DHT22;6510;51.362;7.370;2023-04-09T09:06:36;11.40;99.90
12885;DHT22;6510;51.362;7.370;2023-04-09T09:09:14;11.20;99.90
12885;DHT22;6510;51.362;7.370;2023-04-09T09:11:44;11.50;99.90
12885;DHT22;6510;51.362;7.370;2023-04-09T09:14:10;11.30;99.90
12885;DHT22;6510;51.362;7.370;2023-04-09T09:16:39;11.40;99.90
12885;DHT22;6510;51.362;7.370;2023-04-09T09:19:07;11.50;99.90
12885;DHT22;6510;51.362;7.370;2023-04-09T09:21:33;12.60;99.90
12885;DHT22;6510;51.362;7.370;2023-04-09T09:23:59;15.60;99.90
12885;DHT22;6510;51.362;7.370;2023-04-09T09:26:29;16.10;99.90
12885;DHT22;6510;51.362;7.370;2023-04-09T09:28:56;14.80;99.90
12885;DHT22;6510;51.362;7.370;2023-04-09T09:31:25;15.70;99.90
12885;DHT22;6510;51.362;7.370;2023-04-09T09:33:51;13.80;99.90
12885;DHT22;6510;51.362;7.370;2023-04-09T09:36:30;13.40;99.90
12885;DHT22;6510;51.362;7.370;2023-04-09T09:38:58;15.40;99.90
12885;DHT22;6510;51.362;7.370;2023-04-09T09:41:26;15.30;99.90
12885;DHT22;6510;51.362;7.370;2023-04-09T09:43:52;16.30;99.90
12885;DHT22;6510;51.362;7.370;2023-04-09T09:46:18;15.00;99.90
12885;DHT22;6510;51.362;7.370;2023-04-09T09:48:45;15.90;99.90
12885;DHT22;6510;51.362;7.370;2023-04-09T09:51:12;15.40;99.90
12885;DHT22;6510;51.362;7.370;2023-04-09T09:53:40;14.80;99.90
12885;DHT22;6510;51.362;7.370;2023-04-09T09:56:14;13.50;99.90
12885;DHT22;6510;51.362;7.370;2023-04-09T09:58:48;13.50;99.90
12885;DHT22;6510;51.362;7.370;2023-04-09T10:01:17;17.20;99.90
12885;DHT22;6510;51.362;7.370;2023-04-09T10:03:45;17.00;99.90
12885;DHT22;6510;51.362;7.370;2023-04-09T10:06:12;15.10;99.90
12885;DHT22;6510;51.362;7.370;2023-04-09T10:08:40;14.70;99.90
12885;DHT22;6510;51.362;7.370;2023-04-09T10:11:06;17.00;99.90
12885;DHT22;6510;51.362;7.370;2023-04-09T10:13:38;15.90;99.90
12885;DHT22;6510;51.362;7.370;2023-04-09T10:16:05;14.90;99.90
12885;DHT22;6510;51.362;7.370;2023-04-09T10:18:32;16.30;99.90
12885;DHT22;6510;51.362;7.370;2023-04-09T10:21:06;16.40;99.90
12885;DHT22;6510;51.362;7.370;2023-04-09T10:23:42;15.90;99.90
12885;DHT22;6510;51.362;7.370;2023-04-09T10:26:08;15.20;99.90
12885;DHT22;6510;51.362;7.370;2023-04-09T10:28:36;15.60;99.90
12885;DHT22;6510;51.362;7.370;2023-04-09T10:31:04;15.60;99.90
12885;DHT22;6510;51.362;7.370;2023-04-09T10:33:30;13.80;99.90
12885;DHT22;6510;51.362;7.370;2023-04-09T10:36:02;14.30;99.90
12885;DHT22;6510;51.362;7.370;2023-04-09T10:38:47;15.70;99.90
12885;DHT22;6510;51.362;7.370;2023-04-09T10:41:21;14.60;99.90
12885;DHT22;6510;51.362;7.370;2023-04-09T10:43:47;16.60;99.90
12885;DHT22;6510;51.362;7.370;2023-04-09T10:46:29;14.80;99.90
12885;DHT22;6510;51.362;7.370;2023-04-09T10:49:15;15.50;99.90
12885;DHT22;6510;51.362;7.370;2023-04-09T10:51:45;16.00;99.90
12885;DHT22;6510;51.362;7.370;2023-04-09T10:57:15;14.70;99.90
12885;DHT22;6510;51.362;7.370;2023-04-09T10:59:50;13.60;99.90
12885;DHT22;6510;51.362;7.370;2023-04-09T11:02:41;14.30;99.90
12885;DHT22;6510;51.362;7.370;2023-04-09T11:05:30;14.20;99.90
12885;DHT22;6510;51.362;7.370;2023-04-09T11:08:03;15.10;99.90
12885;DHT22;6510;51.362;7.370;2023-04-09T11:10:29;14.50;99.90
12885;DHT22;6510;51.362;7.370;2023-04-09T11:12:55;14.10;99.90
12885;DHT22;6510;51.362;7.370;2023-04-09T11:15:21;14.20;99.90
12885;DHT22;6510;51.362;7.370;2023-04-09T11:17:47;15.40;99.90
12885;DHT22;6510;51.362;7.370;2023-04-09T11:20:18;16.60;99.90
12885;DHT22;6510;51.362;7.370;2023-04-09T11:22:45;16.80;99.90
12885;DHT22;6510;51.362;7.370;2023-04-09T11:25:20;15.90;99.90
12885;DHT22;6510;51.362;7.370;2023-04-09T11:27:47;14.70;99.90
12885;DHT22;6510;51.362;7.370;2023-04-09T11:30:13;14.70;99.90
12885;DHT22;6510;51.362;7.370;2023-04-09T11:32:39;16.60;99.90
12885;DHT22;6510;51.362;7.370;2023-04-09T11:35:10;15.90;99.90
12885;DHT22;6510;51.362;7.370;2023-04-09T11:37:37;15.60;99.90
12885;DHT22;6510;51.362;7.370;2023-04-09T11:40:03;14.70;99.90
12885;DHT22;6510;51.362;7.370;2023-04-09T11:42:32;14.70;99.90
12885;DHT22;6510;51.362;7.370;2023-04-09T11:44:59;14.30;99.90
12885;DHT22;6510;51.362;7.370;2023-04-09T11:47:26;15.70;99.90
12885;DHT22;6510;51.362;7.370;2023-04-09T11:49:52;16.20;99.90
12885;DHT22;6510;51.362;7.370;2023-04-09T11:52:18;15.20;99.90
12885;DHT22;6510;51.362;7.370;2023-04-09T11:54:50;14.90;99.90
12885;DHT22;6510;51.362;7.370;2023-04-09T11:57:16;15.80;99.90
12885;DHT22;6510;51.362;7.370;2023-04-09T11:59:42;16.80;99.90
12885;DHT22;6510;51.362;7.370;2023-04-09T12:02:08;14.60;99.90
12885;DHT22;6510;51.362;7.370;2023-04-09T12:04:33;14.90;99.90
12885;DHT22;6510;51.362;7.370;2023-04-09T12:06:59;14.40;99.90
12885;DHT22;6510;51.362;7.370;2023-04-09T12:09:25;14.50;99.90
12885;DHT22;6510;51.362;7.370;2023-04-09T12:11:51;14.10;99.90
12885;DHT22;6510;51.362;7.370;2023-04-09T12:14:18;14.60;99.90
12885;DHT22;6510;51.362;7.370;2023-04-09T12:16:50;14.30;99.90
12885;DHT22;6510;51.362;7.370;2023-04-09T12:19:15;14.40;99.90
12885;DHT22;6510;51.362;7.370;2023-04-09T12:21:45;14.10;99.90
12885;DHT22;6510;51.362;7.370;2023-04-09T12:24:15;14.20;99.90
12885;DHT22;6510;51.362;7.370;2023-04-09T12:26:43;14.40;99.90
12885;DHT22;6510;51.362;7.370;2023-04-09T12:29:09;14.10;99.90
12885;DHT22;6510;51.362;7.370;2023-04-09T12:31:35;14.10;99.90
12885;DHT22;6510;51.362;7.370;2023-04-09T12:34:01;14.90;99.90
12885;DHT22;6510;51.362;7.370;2023-04-09T12:36:27;14.70;99.90
12885;DHT22;6510;51.362;7.370;2023-04-09T12:38:52;14.30;99.90
12885;DHT22;6510;51.362;7.370;2023-04-09T12:41:18;13.80;99.90
12885;DHT22;6510;51.362;7.370;2023-04-09T12:43:44;14.40;99.90
12885;DHT22;6510;51.362;7.370;2023-04-09T12:46:10;14.50;99.90
12885;DHT22;6510;51.362;7.370;2023-04-09T12:48:35;13.90;99.90
12885;DHT22;6510;51.362;7.370;2023-04-09T12:51:01;14.60;99.90
12885;DHT22;6510;51.362;7.370;2023-04-09T12:53:29;14.30;99.90
12885;DHT22;6510;51.362;7.370;2023-04-09T12:55:54;14.30;99.90
12885;DHT22;6510;51.362;7.370;2023-04-09T12:58:20;14.40;99.90
12885;DHT22;6510;51.362;7.370;2023-04-09T13:00:46;14.20;99.90
12885;DHT22;6510;51.362;7.370;2023-04-09T13:03:12;14.00;99.90
12885;DHT22;6510;51.362;7.370;2023-04-09T13:05:41;14.20;99.90
12885;DHT22;6510;51.362;7.370;2023-04-09T13:08:07;14.50;99.90
12885;DHT22;6510;51.362;7.370;2023-04-09T13:10:32;14.50;99.90
12885;DHT22;6510;51.362;7.370;2023-04-09T13:12:58;14.30;99.90
12885;DHT22;6510;51.362;7.370;2023-04-09T13:15:24;14.40;99.90
12885;DHT22;6510;51.362;7.370;2023-04-09T13:17:50;14.40;99.90
12885;DHT22;6510;51.362;7.370;2023-04-09T13:20:16;14.60;99.90
12885;DHT22;6510;51.362;7.370;2023-04-09T13:22:41;14.50;99.90
12885;DHT22;6510;51.362;7.370;2023-04-09T13:25:07;14.10;99.90
12885;DHT22;6510;51.362;7.370;2023-04-09T13:27:33;14.50;99.90
12885;DHT22;6510;51.362;7.370;2023-04-09T13:29:58;15.70;99.90
12885;DHT22;6510;51.362;7.370;2023-04-09T13:32:24;15.90;99.90
12885;DHT22;6510;51.362;7.370;2023-04-09T13:34:50;16.40;99.90
12885;DHT22;6510;51.362;7.370;2023-04-09T13:37:18;16.30;99.90
12885;DHT22;6510;51.362;7.370;2023-04-09T13:39:44;16.30;99.90
12885;DHT22;6510;51.362;7.370;2023-04-09T13:42:10;15.00;99.90
12885;DHT22;6510;51.362;7.370;2023-04-09T13:44:35;14.20;99.90
12885;DHT22;6510;51.362;7.370;2023-04-09T13:47:01;14.10;99.90
12885;DHT22;6510;51.362;7.370;2023-04-09T13:49:27;13.90;99.90
12885;DHT22;6510;51.362;7.370;2023-04-09T13:51:54;14.00;99.90
12885;DHT22;6510;51.362;7.370;2023-04-09T13:54:20;14.40;99.90
12885;DHT22;6510;51.362;7.370;2023-04-09T13:56:46;15.20;99.90
12885;DHT22;6510;51.362;7.370;2023-04-09T13:59:11;15.10;99.90
12885;DHT22;6510;51.362;7.370;2023-04-09T14:01:37;15.00;99.90
12885;DHT22;6510;51.362;7.370;2023-04-09T14:04:02;16.00;99.90
12885;DHT22;6510;51.362;7.370;2023-04-09T14:06:28;16.40;99.90
12885;DHT22;6510;51.362;7.370;2023-04-09T14:08:54;15.80;99.90
12885;DHT22;6510;51.362;7.370;2023-04-09T14:11:20;16.20;99.90
12885;DHT22;6510;51.362;7.370;2023-04-09T14:13:45;16.40;99.90
12885;DHT22;6510;51.362;7.370;2023-04-09T14:16:11;16.40;99.90
12885;DHT22;6510;51.362;7.370;2023-04-09T14:18:37;15.80;99.90
12885;DHT22;6510;51.362;7.370;2023-04-09T14:21:05;16.00;99.90
12885;DHT22;6510;51.362;7.370;2023-04-09T14:23:30;15.70;99.90
12885;DHT22;6510;51.362;7.370;2023-04-09T14:25:56;16.00;99.90
12885;DHT22;6510;51.362;7.370;2023-04-09T14:28:22;15.20;99.90
12885;DHT22;6510;51.362;7.370;2023-04-09T14:30:47;15.80;99.90
12885;DHT22;6510;51.362;7.370;2023-04-09T14:33:13;16.00;99.90
12885;DHT22;6510;51.362;7.370;2023-04-09T14:35:38;16.40;99.90
12885;DHT22;6510;51.362;7.370;2023-04-09T14:38:04;16.10;99.90
12885;DHT22;6510;51.362;7.370;2023-04-09T14:40:30;15.70;99.90
12885;DHT22;6510;51.362;7.370;2023-04-09T14:42:59;15.60;99.90
12885;DHT22;6510;51.362;7.370;2023-04-09T14:45:25;15.10;99.90
12885;DHT22;6510;51.362;7.370;2023-04-09T14:47:51;14.80;99.90
12885;DHT22;6510;51.362;7.370;2023-04-09T14:50:16;14.90;99.90
12885;DHT22;6510;51.362;7.370;2023-04-09T14:52:44;14.90;99.90
12885;DHT22;6510;51.362;7.370;2023-04-09T14:55:10;14.70;99.90
12885;DHT22;6510;51.362;7.370;2023-04-09T14:57:40;14.90;99.90
12885;DHT22;6510;51.362;7.370;2023-04-09T15:00:07;14.40;99.90
12885;DHT22;6510;51.362;7.370;2023-04-09T15:02:33;14.20;99.90
12885;DHT22;6510;51.362;7.370;2023-04-09T15:05:04;13.90;99.90
12885;DHT22;6510;51.362;7.370;2023-04-09T15:07:30;13.70;99.90
12885;DHT22;6510;51.362;7.370;2023-04-09T15:09:56;13.60;99.90
12885;DHT22;6510;51.362;7.370;2023-04-09T15:12:28;13.60;99.90
12885;DHT22;6510;51.362;7.370;2023-04-09T15:14:55;13.60;99.90
12885;DHT22;6510;51.362;7.370;2023-04-09T15:17:24;13.40;99.90
12885;DHT22;6510;51.362;7.370;2023-04-09T15:19:51;13.60;99.90
12885;DHT22;6510;51.362;7.370;2023-04-09T15:22:17;14.00;99.90
12885;DHT22;6510;51.362;7.370;2023-04-09T15:24:43;14.30;99.90
12885;DHT22;6510;51.362;7.370;2023-04-09T15:27:08;14.50;99.90
12885;DHT22;6510;51.362;7.370;2023-04-09T15:29:34;14.50;99.90
12885;DHT22;6510;51.362;7.370;2023-04-09T15:32:00;15.10;99.90
12885;DHT22;6510;51.362;7.370;2023-04-09T15:34:26;15.00;99.90
12885;DHT22;6510;51.362;7.370;2023-04-09T15:36:52;14.80;99.90
12885;DHT22;6510;51.362;7.370;2023-04-09T15:39:17;14.20;99.90
12885;DHT22;6510;51.362;7.370;2023-04-09T15:41:43;14.00;99.90
12885;DHT22;6510;51.362;7.370;2023-04-09T15:44:09;13.70;99.90
12885;DHT22;6510;51.362;7.370;2023-04-09T15:46:37;13.80;99.90
12885;DHT22;6510;51.362;7.370;2023-04-09T15:49:03;13.70;99.90
12885;DHT22;6510;51.362;7.370;2023-04-09T15:51:29;13.40;99.90
12885;DHT22;6510;51.362;7.370;2023-04-09T15:53:55;13.40;99.90
12885;DHT22;6510;51.362;7.370;2023-04-09T15:56:21;13.20;99.90
12885;DHT22;6510;51.362;7.370;2023-04-09T15:58:46;13.00;99.90
12885;DHT22;6510;51.362;7.370;2023-04-09T16:01:12;13.10;99.90
12885;DHT22;6510;51.362;7.370;2023-04-09T16:03:38;13.20;99.90
12885;DHT22;6510;51.362;7.370;2023-04-09T16:06:08;13.20;99.90
12885;DHT22;6510;51.362;7.370;2023-04-09T16:08:35;13.10;99.90
12885;DHT22;6510;51.362;7.370;2023-04-09T16:11:02;13.10;99.90